createdAt,value
2022-10-08T00:01:31.630Z,9.04
2022-10-08T00:04:00.491Z,9.04
2022-10-08T00:06:31.127Z,9.05
2022-10-08T00:09:03.477Z,9.07
2022-10-08T00:11:34.001Z,9.11
2022-10-08T00:14:03.866Z,9.08
2022-10-08T00:16:34.374Z,9.14
2022-10-08T00:19:07.291Z,9.11
2022-10-08T00:21:38.490Z,9.08
2022-10-08T00:24:10.544Z,9.11
2022-10-08T00:26:43.609Z,9.00
2022-10-08T00:29:15.820Z,8.95
2022-10-08T00:31:46.467Z,8.94
2022-10-08T00:34:17.707Z,8.95
2022-10-08T00:36:47.664Z,8.95
2022-10-08T00:39:20.148Z,8.95
2022-10-08T00:41:51.892Z,8.94
2022-10-08T00:44:54.516Z,8.97
2022-10-08T00:47:38.522Z,9.04
2022-10-08T00:50:11.622Z,9.04
2022-10-08T00:52:45.374Z,9.04
2022-10-08T00:55:18.497Z,9.04
2022-10-08T00:57:47.822Z,9.03
2022-10-08T01:00:19.593Z,9.00
2022-10-08T01:02:49.371Z,8.98
2022-10-08T01:05:23.342Z,8.94
2022-10-08T01:07:55.880Z,8.90
2022-10-08T01:10:34.091Z,8.90
2022-10-08T01:13:14.026Z,8.88
2022-10-08T01:15:48.750Z,8.83
2022-10-08T01:18:24.064Z,8.80
2022-10-08T01:20:58.055Z,8.77
2022-10-08T01:23:54.368Z,8.85
2022-10-08T01:26:58.011Z,8.86
2022-10-08T01:29:31.105Z,8.74
2022-10-08T01:32:03.732Z,8.67
2022-10-08T01:34:38.459Z,8.71
2022-10-08T01:37:09.707Z,8.71
2022-10-08T01:39:40.298Z,8.66
2022-10-08T01:42:10.224Z,8.63
2022-10-08T01:44:43.352Z,8.59
2022-10-08T01:47:15.815Z,8.58
2022-10-08T01:49:47.710Z,8.58
2022-10-08T01:52:25.711Z,8.58
2022-10-08T01:54:57.673Z,8.62
2022-10-08T01:57:28.189Z,8.62
2022-10-08T02:00:02.272Z,8.66
2022-10-08T02:02:42.032Z,8.65
2022-10-08T02:05:13.141Z,8.66
2022-10-08T02:07:43.809Z,8.66
2022-10-08T02:10:14.429Z,8.71
2022-10-08T02:12:44.453Z,8.75
2022-10-08T02:15:18.699Z,8.72
2022-10-08T02:17:55.701Z,8.71
2022-10-08T02:20:30.323Z,8.68
2022-10-08T02:23:03.283Z,8.68
2022-10-08T02:25:35.684Z,8.66
2022-10-08T02:28:09.233Z,8.63
2022-10-08T02:30:44.058Z,8.63
2022-10-08T02:33:15.754Z,8.63
2022-10-08T02:35:48.599Z,8.69
2022-10-08T02:38:20.503Z,8.67
2022-10-08T02:40:53.210Z,8.63
2022-10-08T02:43:25.232Z,8.59
2022-10-08T02:45:59.197Z,8.57
2022-10-08T02:48:31.425Z,8.53
2022-10-08T02:51:03.474Z,8.50
2022-10-08T02:53:33.048Z,8.46
2022-10-08T02:56:10.009Z,8.43
2022-10-08T02:58:38.552Z,8.40
2022-10-08T03:01:12.474Z,8.39
2022-10-08T03:03:43.351Z,8.36
2022-10-08T03:06:13.582Z,8.36
2022-10-08T03:08:46.330Z,8.37
2022-10-08T03:11:15.196Z,8.41
2022-10-08T03:13:46.374Z,8.44
2022-10-08T03:16:18.585Z,8.42
2022-10-08T03:18:47.714Z,8.45
2022-10-08T03:21:16.782Z,8.48
2022-10-08T03:23:45.655Z,8.51
2022-10-08T03:26:14.473Z,8.54
2022-10-08T03:28:43.045Z,8.64
2022-10-08T03:31:12.368Z,8.71
2022-10-08T03:33:42.540Z,8.82
2022-10-08T03:36:11.230Z,8.87
2022-10-08T03:38:42.190Z,8.90
2022-10-08T03:41:11.182Z,8.90
2022-10-08T03:43:40.767Z,8.85
2022-10-08T03:46:11.298Z,8.79
2022-10-08T03:48:40.333Z,8.86
2022-10-08T03:51:12.580Z,8.83
2022-10-08T03:53:42.473Z,8.87
2022-10-08T03:56:13.697Z,8.91
2022-10-08T03:58:42.403Z,8.94
2022-10-08T04:01:13.434Z,8.98
2022-10-08T04:03:42.355Z,9.03
2022-10-08T04:06:12.779Z,9.02
2022-10-08T04:08:44.819Z,9.09
2022-10-08T04:11:15.073Z,9.13
2022-10-08T04:13:44.231Z,9.16
2022-10-08T04:16:14.978Z,9.23
2022-10-08T04:18:44.503Z,9.29
2022-10-08T04:21:16.158Z,9.34
2022-10-08T04:23:45.722Z,9.41
2022-10-08T04:26:15.918Z,9.47
2022-10-08T04:28:45.730Z,9.55
2022-10-08T04:31:16.893Z,9.59
2022-10-08T04:33:46.351Z,9.62
2022-10-08T04:36:17.584Z,9.62
2022-10-08T04:38:46.725Z,9.64
2022-10-08T04:41:16.982Z,9.62
2022-10-08T04:43:46.714Z,9.64
2022-10-08T04:46:18.782Z,9.66
2022-10-08T04:48:50.723Z,9.63
2022-10-08T04:51:21.287Z,9.72
2022-10-08T04:53:50.547Z,9.71
2022-10-08T04:56:21.245Z,9.73
2022-10-08T04:58:49.454Z,9.76
2022-10-08T05:01:19.731Z,9.77
2022-10-08T05:03:50.037Z,9.83
2022-10-08T05:06:21.992Z,9.90
2022-10-08T05:08:53.707Z,9.92
2022-10-08T05:11:24.971Z,9.90
2022-10-08T05:13:54.027Z,9.90
2022-10-08T05:16:23.173Z,9.89
2022-10-08T05:18:52.537Z,9.87
2022-10-08T05:21:24.545Z,9.92
2022-10-08T05:23:57.059Z,9.95
2022-10-08T05:26:46.619Z,9.98
2022-10-08T05:29:15.703Z,10.04
2022-10-08T05:31:44.544Z,10.11
2022-10-08T05:34:14.483Z,10.15
2022-10-08T05:36:44.680Z,10.20
2022-10-08T05:39:13.520Z,10.25
2022-10-08T05:41:42.485Z,10.37
2022-10-08T05:44:12.332Z,10.48
2022-10-08T05:46:41.079Z,10.52
2022-10-08T05:49:14.497Z,10.59
2022-10-08T05:51:44.596Z,10.59
2022-10-08T05:54:13.424Z,10.76
2022-10-08T05:56:42.073Z,10.93
2022-10-08T05:59:17.241Z,11.12
2022-10-08T06:01:45.746Z,11.30
2022-10-08T06:04:14.823Z,11.40
2022-10-08T06:06:45.216Z,11.53
2022-10-08T06:09:14.510Z,11.67
2022-10-08T06:11:43.754Z,11.56
2022-10-08T06:14:13.403Z,11.71
2022-10-08T06:16:42.341Z,11.87
2022-10-08T06:19:11.506Z,12.01
2022-10-08T06:21:40.452Z,12.10
2022-10-08T06:24:12.409Z,12.20
2022-10-08T06:26:42.880Z,12.26
2022-10-08T06:29:12.181Z,12.33
2022-10-08T06:31:40.617Z,12.45
2022-10-08T06:34:09.603Z,12.45
2022-10-08T06:36:38.542Z,12.55
2022-10-08T06:39:08.407Z,12.76
2022-10-08T06:41:38.941Z,13.05
2022-10-08T06:44:08.358Z,13.19
2022-10-08T06:46:36.820Z,13.08
2022-10-08T06:49:06.686Z,13.02
2022-10-08T06:51:36.149Z,13.01
2022-10-08T06:54:08.214Z,12.93
2022-10-08T06:56:39.591Z,12.99
2022-10-08T06:59:08.837Z,13.05
2022-10-08T07:01:37.798Z,13.05
2022-10-08T07:04:08.324Z,13.15
2022-10-08T07:06:37.205Z,13.20
2022-10-08T07:09:07.194Z,13.35
2022-10-08T07:11:36.216Z,13.47
2022-10-08T07:14:06.412Z,13.51
2022-10-08T07:16:34.897Z,13.46
2022-10-08T07:19:03.708Z,13.48
2022-10-08T07:21:32.593Z,13.53
2022-10-08T07:24:02.096Z,13.44
2022-10-08T07:26:32.570Z,13.47
2022-10-08T07:29:01.747Z,13.43
2022-10-08T07:31:33.009Z,13.52
2022-10-08T07:34:02.833Z,13.64
2022-10-08T07:36:32.352Z,13.90
2022-10-08T07:39:02.799Z,14.01
2022-10-08T07:41:31.951Z,14.27
2022-10-08T07:44:02.458Z,14.23
2022-10-08T07:46:33.527Z,14.35
2022-10-08T07:49:02.675Z,14.37
2022-10-08T07:51:32.608Z,14.40
2022-10-08T07:54:03.214Z,14.42
2022-10-08T07:56:32.681Z,14.72
2022-10-08T07:59:01.551Z,14.69
2022-10-08T08:01:32.963Z,14.94
2022-10-08T08:04:03.345Z,15.26
2022-10-08T08:06:32.942Z,15.58
2022-10-08T08:09:03.724Z,15.51
2022-10-08T08:11:32.776Z,15.62
2022-10-08T08:14:01.452Z,15.44
2022-10-08T08:16:31.770Z,15.53
2022-10-08T08:19:02.634Z,15.62
2022-10-08T08:21:32.784Z,15.55
2022-10-08T08:24:05.272Z,15.71
2022-10-08T08:26:35.989Z,15.77
2022-10-08T08:29:06.816Z,15.81
2022-10-08T08:31:37.028Z,15.91
2022-10-08T08:34:08.705Z,16.09
2022-10-08T08:36:39.536Z,15.96
2022-10-08T08:39:12.472Z,16.11
2022-10-08T08:41:54.171Z,16.82
2022-10-08T08:44:24.234Z,16.62
2022-10-08T08:46:56.016Z,17.16
2022-10-08T08:49:29.639Z,18.26
2022-10-08T08:51:59.532Z,17.70
2022-10-08T08:54:28.803Z,18.28
2022-10-08T08:56:58.279Z,20.20
2022-10-08T08:59:29.714Z,19.60
2022-10-08T09:02:01.468Z,20.85
2022-10-08T09:04:40.584Z,21.26
2022-10-08T09:07:16.706Z,24.13
2022-10-08T09:09:46.774Z,25.17
2022-10-08T09:12:20.953Z,22.20
2022-10-08T09:14:54.611Z,21.67
2022-10-08T09:17:30.206Z,19.95
2022-10-08T09:19:58.827Z,20.51
2022-10-08T09:22:29.606Z,21.03
2022-10-08T09:25:01.542Z,21.04
2022-10-08T09:27:50.329Z,20.44
2022-10-08T09:30:40.876Z,19.99
2022-10-08T09:33:22.891Z,20.03
2022-10-08T09:35:52.842Z,20.78
2022-10-08T09:38:26.363Z,21.28
2022-10-08T09:41:02.726Z,22.95
2022-10-08T09:43:32.127Z,24.43
2022-10-08T09:46:03.008Z,22.18
2022-10-08T09:48:35.942Z,22.67
2022-10-08T09:51:05.681Z,21.35
2022-10-08T09:53:39.970Z,20.59
2022-10-08T09:56:09.790Z,21.00
2022-10-08T09:58:49.478Z,22.34
2022-10-08T10:01:19.133Z,25.02
2022-10-08T10:03:54.800Z,25.69
2022-10-08T10:06:30.438Z,22.18
2022-10-08T10:09:03.639Z,20.21
2022-10-08T10:11:38.358Z,19.66
2022-10-08T10:14:14.572Z,19.37
2022-10-08T10:16:45.197Z,19.29
2022-10-08T10:19:17.690Z,19.55
2022-10-08T10:21:52.814Z,19.02
2022-10-08T10:24:39.324Z,19.06
2022-10-08T10:27:10.770Z,18.17
2022-10-08T10:29:49.082Z,18.65
2022-10-08T10:32:21.800Z,18.66
2022-10-08T10:34:59.511Z,18.85
2022-10-08T10:37:34.463Z,18.99
2022-10-08T10:40:17.762Z,18.82
2022-10-08T10:42:51.677Z,18.72
2022-10-08T10:45:23.267Z,18.45
2022-10-08T10:47:52.269Z,18.37
2022-10-08T10:50:25.948Z,18.38
2022-10-08T10:53:02.184Z,17.76
2022-10-08T10:55:34.611Z,17.43
2022-10-08T10:58:22.102Z,17.44
2022-10-08T11:00:58.706Z,17.48
2022-10-08T11:03:33.736Z,17.38
2022-10-08T11:06:13.777Z,17.61
2022-10-08T11:08:46.316Z,17.91
2022-10-08T11:11:23.597Z,18.31
2022-10-08T11:14:05.804Z,18.22
2022-10-08T11:16:51.982Z,18.05
2022-10-08T11:19:29.890Z,18.17
2022-10-08T11:22:05.076Z,18.14
2022-10-08T11:24:45.862Z,18.39
2022-10-08T11:27:20.282Z,18.50
2022-10-08T11:29:56.609Z,18.24
2022-10-08T11:32:27.102Z,18.32
2022-10-08T11:34:57.397Z,18.31
2022-10-08T11:37:28.396Z,18.64
2022-10-08T11:40:03.121Z,19.00
2022-10-08T11:42:40.282Z,18.64
2022-10-08T11:45:31.470Z,18.14
2022-10-08T11:48:01.056Z,18.31
2022-10-08T11:50:32.188Z,18.95
2022-10-08T11:53:15.217Z,19.10
2022-10-08T11:55:51.077Z,18.48
2022-10-08T11:58:23.904Z,18.82
2022-10-08T12:00:55.342Z,18.95
2022-10-08T12:03:28.466Z,19.75
2022-10-08T12:05:59.123Z,21.56
2022-10-08T12:08:59.822Z,23.10
2022-10-08T12:11:52.550Z,21.65
2022-10-08T12:14:31.327Z,22.07
2022-10-08T12:17:10.573Z,21.55
2022-10-08T12:20:04.500Z,21.11
2022-10-08T12:22:44.301Z,21.90
2022-10-08T12:25:41.890Z,22.13
2022-10-08T12:28:39.246Z,20.91
2022-10-08T12:31:19.778Z,22.16
2022-10-08T12:33:59.877Z,22.49
2022-10-08T12:36:36.522Z,23.68
2022-10-08T12:39:07.849Z,25.52
2022-10-08T12:41:44.015Z,22.76
2022-10-08T12:44:24.019Z,20.80
2022-10-08T12:46:58.354Z,19.26
2022-10-08T12:49:34.179Z,19.14
2022-10-08T12:52:06.388Z,18.95
2022-10-08T12:54:35.603Z,19.65
2022-10-08T12:57:11.769Z,21.06
2022-10-08T12:59:42.035Z,21.90
2022-10-08T13:02:26.543Z,22.91
2022-10-08T13:04:55.022Z,22.66
2022-10-08T13:07:29.029Z,21.95
2022-10-08T13:09:59.251Z,22.51
2022-10-08T13:12:29.275Z,23.09
2022-10-08T13:15:02.063Z,21.53
2022-10-08T13:17:32.270Z,20.25
2022-10-08T13:20:16.789Z,19.61
2022-10-08T13:22:45.224Z,19.97
2022-10-08T13:25:35.258Z,19.90
2022-10-08T13:28:14.275Z,19.35
2022-10-08T13:30:44.692Z,19.45
2022-10-08T13:33:14.267Z,19.42
2022-10-08T13:35:43.778Z,19.06
2022-10-08T13:38:21.292Z,18.94
2022-10-08T13:40:52.328Z,18.78
2022-10-08T13:43:24.019Z,18.69
2022-10-08T13:45:52.940Z,18.45
2022-10-08T13:48:21.749Z,18.42
2022-10-08T13:50:52.310Z,18.15
2022-10-08T13:53:23.103Z,18.06
2022-10-08T13:55:51.790Z,17.99
2022-10-08T13:58:21.730Z,18.10
2022-10-08T14:00:52.178Z,17.97
2022-10-08T14:03:22.936Z,17.91
2022-10-08T14:05:52.122Z,17.90
2022-10-08T14:08:24.458Z,17.99
2022-10-08T14:10:57.753Z,18.27
2022-10-08T14:13:29.820Z,18.86
2022-10-08T14:16:00.208Z,19.49
2022-10-08T14:18:29.126Z,19.96
2022-10-08T14:20:57.920Z,19.93
2022-10-08T14:23:26.947Z,19.93
2022-10-08T14:25:55.710Z,19.67
2022-10-08T14:28:24.641Z,19.58
2022-10-08T14:30:53.396Z,19.10
2022-10-08T14:33:23.593Z,18.83
2022-10-08T14:35:54.110Z,19.16
2022-10-08T14:38:22.871Z,19.52
2022-10-08T14:40:51.478Z,19.10
2022-10-08T14:43:20.388Z,18.78
2022-10-08T14:45:49.695Z,18.48
2022-10-08T14:48:18.667Z,18.47
2022-10-08T14:50:48.938Z,18.44
2022-10-08T14:53:17.519Z,18.32
2022-10-08T14:56:07.872Z,18.35
2022-10-08T14:58:35.172Z,18.43
2022-10-08T15:01:03.915Z,18.23
2022-10-08T15:03:32.963Z,18.25
2022-10-08T15:06:03.316Z,18.04
2022-10-08T15:08:31.916Z,17.87
2022-10-08T15:11:03.487Z,17.71
2022-10-08T15:13:32.031Z,17.67
2022-10-08T15:16:03.226Z,17.58
2022-10-08T15:18:32.736Z,17.49
2022-10-08T15:21:02.967Z,17.47
2022-10-08T15:23:31.731Z,17.41
2022-10-08T15:26:02.121Z,17.28
2022-10-08T15:28:31.011Z,17.20
2022-10-08T15:31:09.354Z,17.07
2022-10-08T15:33:39.265Z,17.00
2022-10-08T15:36:19.935Z,17.01
2022-10-08T15:38:49.641Z,16.94
2022-10-08T15:41:18.643Z,16.89
2022-10-08T15:43:48.157Z,16.79
2022-10-08T15:46:18.161Z,16.74
2022-10-08T15:48:54.131Z,16.67
2022-10-08T15:51:25.511Z,16.64
2022-10-08T15:53:54.339Z,16.62
2022-10-08T15:56:23.150Z,16.57
2022-10-08T15:58:54.100Z,16.56
2022-10-08T16:01:24.170Z,16.48
2022-10-08T16:03:54.583Z,16.45
2022-10-08T16:06:27.636Z,16.46
2022-10-08T16:08:58.135Z,16.46
2022-10-08T16:11:29.007Z,16.47
2022-10-08T16:13:57.843Z,16.51
2022-10-08T16:16:26.719Z,16.52
2022-10-08T16:18:58.410Z,16.34
2022-10-08T16:21:29.118Z,16.01
2022-10-08T16:23:58.462Z,15.35
2022-10-08T16:26:31.841Z,14.92
2022-10-08T16:29:02.134Z,14.66
2022-10-08T16:31:32.659Z,14.46
2022-10-08T16:34:02.592Z,14.29
2022-10-08T16:36:34.945Z,14.13
2022-10-08T16:39:04.616Z,14.02
2022-10-08T16:41:34.973Z,13.95
2022-10-08T16:44:09.765Z,13.94
2022-10-08T16:46:41.549Z,13.89
2022-10-08T16:49:19.613Z,13.83
2022-10-08T16:51:51.976Z,13.83
2022-10-08T16:54:21.045Z,13.81
2022-10-08T16:56:49.882Z,13.79
2022-10-08T16:59:20.747Z,13.82
2022-10-08T17:01:51.475Z,13.76
2022-10-08T17:04:21.020Z,13.74
2022-10-08T17:06:51.602Z,13.77
2022-10-08T17:09:20.510Z,14.26
2022-10-08T17:11:49.332Z,14.33
2022-10-08T17:14:18.096Z,14.42
2022-10-08T17:16:46.728Z,14.48
2022-10-08T17:19:15.444Z,14.47
2022-10-08T17:21:44.178Z,14.35
2022-10-08T17:24:14.352Z,14.30
2022-10-08T17:26:43.562Z,14.34
2022-10-08T17:29:13.239Z,14.39
2022-10-08T17:31:41.686Z,14.31
2022-10-08T17:34:11.566Z,14.38
2022-10-08T17:36:41.792Z,14.43
2022-10-08T17:39:14.889Z,14.30
2022-10-08T17:41:44.517Z,14.34
2022-10-08T17:44:13.902Z,14.43
2022-10-08T17:46:46.084Z,14.39
2022-10-08T17:49:15.062Z,14.42
2022-10-08T17:51:43.846Z,14.42
2022-10-08T17:54:15.932Z,14.33
2022-10-08T17:56:44.972Z,14.28
2022-10-08T17:59:15.398Z,14.32
2022-10-08T18:01:45.397Z,14.24
2022-10-08T18:04:16.413Z,14.22
2022-10-08T18:06:46.780Z,14.09
2022-10-08T18:09:19.551Z,14.08
2022-10-08T18:11:51.005Z,13.99
2022-10-08T18:14:20.713Z,13.90
2022-10-08T18:16:49.204Z,13.90
2022-10-08T18:19:18.583Z,13.77
2022-10-08T18:21:47.571Z,13.76
2022-10-08T18:24:18.599Z,13.65
2022-10-08T18:26:48.954Z,13.61
2022-10-08T18:29:17.778Z,13.54
2022-10-08T18:31:47.574Z,13.13
2022-10-08T18:34:18.029Z,13.05
2022-10-08T18:36:47.311Z,13.30
2022-10-08T18:39:18.566Z,13.40
2022-10-08T18:41:48.707Z,13.37
2022-10-08T18:44:18.914Z,13.32
2022-10-08T18:46:47.455Z,13.39
2022-10-08T18:49:18.605Z,13.32
2022-10-08T18:51:47.626Z,13.35
2022-10-08T18:54:18.121Z,13.22
2022-10-08T18:56:46.935Z,13.20
2022-10-08T18:59:18.089Z,13.14
2022-10-08T19:01:48.142Z,13.07
2022-10-08T19:04:19.136Z,13.04
2022-10-08T19:06:49.576Z,13.05
2022-10-08T19:09:19.484Z,13.02
2022-10-08T19:11:49.483Z,13.03
2022-10-08T19:14:19.366Z,13.03
2022-10-08T19:16:48.222Z,13.03
2022-10-08T19:19:18.432Z,13.01
2022-10-08T19:21:48.586Z,12.90
2022-10-08T19:24:20.131Z,12.65
2022-10-08T19:26:49.537Z,12.68
2022-10-08T19:29:20.404Z,12.62
2022-10-08T19:31:50.206Z,12.63
2022-10-08T19:34:20.793Z,12.75
2022-10-08T19:36:49.599Z,12.68
2022-10-08T19:39:22.100Z,12.67
2022-10-08T19:41:51.070Z,12.62
2022-10-08T19:44:20.228Z,12.61
2022-10-08T19:46:48.889Z,12.60
2022-10-08T19:49:19.360Z,12.59
2022-10-08T19:51:47.830Z,12.58
2022-10-08T19:54:16.934Z,12.55
2022-10-08T19:56:47.075Z,12.58
2022-10-08T19:59:16.567Z,12.62
2022-10-08T20:01:45.145Z,12.59
2022-10-08T20:04:14.350Z,12.56
2022-10-08T20:06:43.345Z,12.54
2022-10-08T20:09:18.378Z,12.56
2022-10-08T20:11:48.537Z,12.61
2022-10-08T20:14:17.375Z,12.57
2022-10-08T20:16:45.825Z,12.55
2022-10-08T20:19:17.865Z,12.53
2022-10-08T20:21:47.333Z,12.52
2022-10-08T20:24:16.696Z,12.46
2022-10-08T20:26:46.003Z,12.43
2022-10-08T20:29:17.862Z,12.50
2022-10-08T20:31:49.484Z,12.51
2022-10-08T20:34:20.189Z,12.47
2022-10-08T20:36:49.686Z,12.46
2022-10-08T20:39:19.906Z,12.46
2022-10-08T20:41:48.919Z,12.44
2022-10-08T20:44:19.258Z,12.37
2022-10-08T20:46:47.877Z,12.33
2022-10-08T20:49:16.631Z,12.30
2022-10-08T20:51:45.484Z,12.28
2022-10-08T20:54:15.612Z,12.40
2022-10-08T20:56:44.412Z,12.36
2022-10-08T20:59:16.273Z,12.26
2022-10-08T21:01:46.788Z,12.20
2022-10-08T21:04:15.546Z,12.15
2022-10-08T21:06:45.191Z,12.12
2022-10-08T21:09:14.564Z,12.11
2022-10-08T21:11:45.903Z,12.13
2022-10-08T21:14:16.843Z,12.21
2022-10-08T21:16:47.001Z,12.24
2022-10-08T21:19:18.889Z,12.22
2022-10-08T21:21:47.732Z,12.21
2022-10-08T21:24:16.666Z,12.20
2022-10-08T21:26:45.707Z,12.22
2022-10-08T21:29:15.900Z,12.19
2022-10-08T21:31:44.664Z,12.18
2022-10-08T21:34:16.025Z,12.18
2022-10-08T21:36:47.497Z,12.23
2022-10-08T21:39:17.581Z,12.16
2022-10-08T21:41:49.418Z,12.02
2022-10-08T21:44:18.229Z,11.84
2022-10-08T21:46:46.913Z,11.73
2022-10-08T21:49:18.303Z,11.71
2022-10-08T21:51:47.256Z,11.67
2022-10-08T21:54:17.171Z,11.62
2022-10-08T21:56:46.280Z,11.53
2022-10-08T21:59:16.183Z,11.54
2022-10-08T22:01:45.901Z,11.59
2022-10-08T22:04:18.685Z,11.55
2022-10-08T22:06:49.249Z,11.55
2022-10-08T22:09:20.240Z,11.42
2022-10-08T22:11:49.926Z,11.34
2022-10-08T22:14:19.465Z,11.29
2022-10-08T22:16:48.229Z,11.34
2022-10-08T22:19:18.964Z,11.22
2022-10-08T22:21:47.779Z,11.00
2022-10-08T22:24:16.590Z,11.13
2022-10-08T22:26:47.001Z,11.11
2022-10-08T22:29:16.025Z,11.00
2022-10-08T22:31:44.529Z,11.06
2022-10-08T22:34:13.600Z,10.94
2022-10-08T22:36:45.103Z,10.86
2022-10-08T22:39:13.944Z,10.81
2022-10-08T22:41:42.675Z,10.85
2022-10-08T22:44:11.434Z,10.71
2022-10-08T22:46:40.922Z,10.72
2022-10-08T22:49:12.416Z,10.56
2022-10-08T22:51:41.337Z,10.57
2022-10-08T22:54:11.667Z,10.55
2022-10-08T22:56:40.478Z,10.50
2022-10-08T22:59:09.337Z,10.45
2022-10-08T23:01:37.740Z,10.41
2022-10-08T23:04:06.670Z,10.37
2022-10-08T23:06:36.526Z,10.36
2022-10-08T23:09:07.406Z,10.33
2022-10-08T23:11:37.510Z,10.28
2022-10-08T23:14:06.662Z,10.32
2022-10-08T23:16:36.058Z,10.18
2022-10-08T23:19:06.394Z,10.24
2022-10-08T23:21:35.945Z,10.25
2022-10-08T23:24:04.941Z,10.28
2022-10-08T23:26:33.875Z,10.30
2022-10-08T23:29:04.661Z,10.31
2022-10-08T23:31:33.386Z,10.22
2022-10-08T23:34:02.701Z,10.20
2022-10-08T23:36:32.977Z,10.13
2022-10-08T23:39:01.809Z,10.19
2022-10-08T23:41:30.560Z,10.23
2022-10-08T23:43:59.492Z,10.34
2022-10-08T23:46:30.492Z,10.43
2022-10-08T23:49:00.972Z,10.49
2022-10-08T23:51:32.184Z,10.56
2022-10-08T23:54:02.482Z,10.66
2022-10-08T23:56:31.236Z,10.66
2022-10-08T23:59:03.094Z,10.73
